Hauptseite
METAR-TAF:

METAR-TAF

Flughäfen :

Bagdad, Irak

Flughafen Bagdad

Breite: 33-15-45N, Länge: 44-14-04E, Höhe: 35 m

Beobachtung

Neuester Wetterbericht von vor 36 Minuten, um 16:00 UTC
Wind 3 kt aus Ost
Temperatur 16°C
Luftfeuchtigkeit 51%
Luftdruck 1024 hPa
Sichtweite 10 km oder mehr
Leicht bewölkt in der Höhe von 3800 ft

METAR: ORBI 181600Z 10003KT 9999 FEW038 16/06 Q1024

Zeit: 19:36 (16:36 UTC)

Prognose

Neuester Wetterbericht von vor 6 Stunden und 36 Minuten, um 10:00 UTC
Gültige Prognose vom 18 um 12 UTC bis 19 um 12 UTC
Wind 4 kt aus West/Nordwest
Sichtweite: 7000 m

TAF: ORBI 181000Z 1812/1912 30004KT 7000 NSC

Wetterbeobachtungen und Prognosen von mehr als 4000 Flughäfen (METAR und TAF Bericht).

Die verfügbaren Stationen werden durch gelbe und rote Markierungen auf der Karte dargestellt.

Führen Sie die Maus auf sie, um den Namen der Station zu sehen.

Darauf klicken, um die Beobachtung von Wetterbeobachtungen und Prognosen zu sehen.

Um die Karte zu ändern : klicken Sie auf den grünen Tasten mit einem schwarzen Kreuz Zum Vergrößern, auf den grünen Button mit einem Gedankenstrich zu verkleinern, oder auf die grünen Pfeile für benachbarte Karten.


METAR-TAF: